sensor_id;sensor_type;location;lat;lon;timestamp;P1;durP1;ratioP1;P2;durP2;ratioP2
13240;SDS011;6687;47.790;7.322;2022-08-14T06:13:26;0.95;;;0.88;;
13240;SDS011;6687;47.790;7.322;2022-08-14T06:15:53;0.82;;;0.82;;
13240;SDS011;6687;47.790;7.322;2022-08-14T06:18:19;0.75;;;0.75;;
13240;SDS011;6687;47.790;7.322;2022-08-14T06:20:46;1.08;;;0.73;;
13240;SDS011;6687;47.790;7.322;2022-08-14T06:23:13;0.82;;;0.82;;
13240;SDS011;6687;47.790;7.322;2022-08-14T06:25:40;1.08;;;0.80;;
13240;SDS011;6687;47.790;7.322;2022-08-14T06:28:14;1.08;;;0.93;;
13240;SDS011;6687;47.790;7.322;2022-08-14T06:30:42;1.30;;;0.80;;
13240;SDS011;6687;47.790;7.322;2022-08-14T06:33:09;0.68;;;0.68;;
13240;SDS011;6687;47.790;7.322;2022-08-14T06:35:36;0.75;;;0.75;;
13240;SDS011;6687;47.790;7.322;2022-08-14T06:38:03;0.85;;;0.85;;
13240;SDS011;6687;47.790;7.322;2022-08-14T06:40:31;1.00;;;0.88;;
13240;SDS011;6687;47.790;7.322;2022-08-14T06:43:00;0.90;;;0.90;;
13240;SDS011;6687;47.790;7.322;2022-08-14T06:45:28;2.42;;;0.90;;
13240;SDS011;6687;47.790;7.322;2022-08-14T06:47:57;0.80;;;0.63;;
13240;SDS011;6687;47.790;7.322;2022-08-14T06:50:25;2.13;;;0.88;;
13240;SDS011;6687;47.790;7.322;2022-08-14T06:52:53;1.70;;;1.10;;
13240;SDS011;6687;47.790;7.322;2022-08-14T06:55:20;0.80;;;0.80;;
13240;SDS011;6687;47.790;7.322;2022-08-14T06:57:48;0.93;;;0.85;;
13240;SDS011;6687;47.790;7.322;2022-08-14T07:00:17;0.90;;;0.90;;
13240;SDS011;6687;47.790;7.322;2022-08-14T07:02:45;0.77;;;0.77;;
13240;SDS011;6687;47.790;7.322;2022-08-14T07:05:31;0.75;;;0.75;;
13240;SDS011;6687;47.790;7.322;2022-08-14T07:08:12;1.10;;;0.93;;
13240;SDS011;6687;47.790;7.322;2022-08-14T07:10:43;3.22;;;0.80;;
13240;SDS011;6687;47.790;7.322;2022-08-14T07:13:10;0.90;;;0.90;;
13240;SDS011;6687;47.790;7.322;2022-08-14T07:15:38;0.82;;;0.82;;
13240;SDS011;6687;47.790;7.322;2022-08-14T07:18:06;0.70;;;0.70;;
13240;SDS011;6687;47.790;7.322;2022-08-14T07:20:35;0.98;;;0.80;;
13240;SDS011;6687;47.790;7.322;2022-08-14T07:23:02;1.10;;;0.85;;
13240;SDS011;6687;47.790;7.322;2022-08-14T07:25:31;0.75;;;0.60;;
13240;SDS011;6687;47.790;7.322;2022-08-14T07:27:58;0.90;;;0.90;;
13240;SDS011;6687;47.790;7.322;2022-08-14T07:30:26;0.80;;;0.80;;
13240;SDS011;6687;47.790;7.322;2022-08-14T07:32:53;1.00;;;1.00;;
13240;SDS011;6687;47.790;7.322;2022-08-14T07:35:19;0.70;;;0.70;;
13240;SDS011;6687;47.790;7.322;2022-08-14T07:37:48;4.47;;;0.70;;
13240;SDS011;6687;47.790;7.322;2022-08-14T07:40:15;0.70;;;0.70;;
13240;SDS011;6687;47.790;7.322;2022-08-14T07:42:42;0.80;;;0.80;;
13240;SDS011;6687;47.790;7.322;2022-08-14T07:45:09;0.60;;;0.60;;
13240;SDS011;6687;47.790;7.322;2022-08-14T07:47:40;1.02;;;0.88;;
13240;SDS011;6687;47.790;7.322;2022-08-14T07:50:10;0.77;;;0.77;;
13240;SDS011;6687;47.790;7.322;2022-08-14T07:52:39;0.93;;;0.93;;
13240;SDS011;6687;47.790;7.322;2022-08-14T07:55:08;0.50;;;0.50;;
13240;SDS011;6687;47.790;7.322;2022-08-14T07:57:36;0.85;;;0.85;;
13240;SDS011;6687;47.790;7.322;2022-08-14T08:00:05;1.08;;;0.80;;
13240;SDS011;6687;47.790;7.322;2022-08-14T08:02:34;1.13;;;1.02;;
13240;SDS011;6687;47.790;7.322;2022-08-14T08:05:04;1.08;;;0.98;;
13240;SDS011;6687;47.790;7.322;2022-08-14T08:07:32;1.10;;;0.93;;
13240;SDS011;6687;47.790;7.322;2022-08-14T08:10:03;0.80;;;0.80;;
13240;SDS011;6687;47.790;7.322;2022-08-14T08:12:53;1.05;;;0.80;;
13240;SDS011;6687;47.790;7.322;2022-08-14T08:15:22;2.05;;;0.85;;
13240;SDS011;6687;47.790;7.322;2022-08-14T08:17:48;0.73;;;0.73;;
13240;SDS011;6687;47.790;7.322;2022-08-14T08:20:16;0.70;;;0.70;;
13240;SDS011;6687;47.790;7.322;2022-08-14T08:22:44;0.70;;;0.70;;
13240;SDS011;6687;47.790;7.322;2022-08-14T08:25:10;0.82;;;0.82;;
13240;SDS011;6687;47.790;7.322;2022-08-14T08:27:38;0.90;;;0.90;;
13240;SDS011;6687;47.790;7.322;2022-08-14T08:30:07;0.90;;;0.85;;
13240;SDS011;6687;47.790;7.322;2022-08-14T08:32:39;0.85;;;0.85;;
13240;SDS011;6687;47.790;7.322;2022-08-14T08:35:08;0.73;;;0.73;;
13240;SDS011;6687;47.790;7.322;2022-08-14T08:37:41;0.85;;;0.85;;
13240;SDS011;6687;47.790;7.322;2022-08-14T08:40:08;0.70;;;0.70;;
13240;SDS011;6687;47.790;7.322;2022-08-14T08:42:36;0.95;;;0.68;;
13240;SDS011;6687;47.790;7.322;2022-08-14T08:45:03;0.70;;;0.70;;
13240;SDS011;6687;47.790;7.322;2022-08-14T08:47:37;0.90;;;0.90;;
13240;SDS011;6687;47.790;7.322;2022-08-14T08:50:14;0.77;;;0.73;;
13240;SDS011;6687;47.790;7.322;2022-08-14T08:52:51;0.60;;;0.60;;
13240;SDS011;6687;47.790;7.322;2022-08-14T08:55:26;1.25;;;0.90;;
13240;SDS011;6687;47.790;7.322;2022-08-14T08:57:56;0.63;;;0.63;;
13240;SDS011;6687;47.790;7.322;2022-08-14T09:00:23;0.80;;;0.80;;
13240;SDS011;6687;47.790;7.322;2022-08-14T09:02:55;0.90;;;0.90;;
13240;SDS011;6687;47.790;7.322;2022-08-14T09:05:24;0.80;;;0.63;;
13240;SDS011;6687;47.790;7.322;2022-08-14T09:07:51;0.90;;;0.70;;
13240;SDS011;6687;47.790;7.322;2022-08-14T09:10:17;0.77;;;0.77;;
13240;SDS011;6687;47.790;7.322;2022-08-14T09:12:45;1.15;;;0.90;;
13240;SDS011;6687;47.790;7.322;2022-08-14T09:15:12;1.00;;;1.00;;
13240;SDS011;6687;47.790;7.322;2022-08-14T09:17:40;0.90;;;0.90;;
13240;SDS011;6687;47.790;7.322;2022-08-14T09:20:10;0.80;;;0.80;;
13240;SDS011;6687;47.790;7.322;2022-08-14T09:22:38;1.00;;;0.90;;
13240;SDS011;6687;47.790;7.322;2022-08-14T09:25:06;0.90;;;0.90;;
13240;SDS011;6687;47.790;7.322;2022-08-14T09:27:34;0.82;;;0.82;;
13240;SDS011;6687;47.790;7.322;2022-08-14T09:30:01;1.20;;;1.05;;
13240;SDS011;6687;47.790;7.322;2022-08-14T09:32:31;1.02;;;0.90;;
13240;SDS011;6687;47.790;7.322;2022-08-14T09:35:22;1.10;;;1.08;;
13240;SDS011;6687;47.790;7.322;2022-08-14T09:37:57;0.93;;;0.90;;
13240;SDS011;6687;47.790;7.322;2022-08-14T09:40:34;0.98;;;0.93;;
13240;SDS011;6687;47.790;7.322;2022-08-14T09:43:13;0.70;;;0.70;;
13240;SDS011;6687;47.790;7.322;2022-08-14T09:45:51;1.02;;;0.93;;
13240;SDS011;6687;47.790;7.322;2022-08-14T09:48:22;0.93;;;0.93;;
13240;SDS011;6687;47.790;7.322;2022-08-14T09:50:52;0.93;;;0.93;;
13240;SDS011;6687;47.790;7.322;2022-08-14T09:53:32;1.00;;;0.80;;
13240;SDS011;6687;47.790;7.322;2022-08-14T09:56:00;1.20;;;1.10;;
13240;SDS011;6687;47.790;7.322;2022-08-14T09:58:34;0.90;;;0.90;;
13240;SDS011;6687;47.790;7.322;2022-08-14T10:01:06;0.93;;;0.93;;
13240;SDS011;6687;47.790;7.322;2022-08-14T10:03:36;0.90;;;0.90;;
13240;SDS011;6687;47.790;7.322;2022-08-14T10:06:07;0.93;;;0.93;;
13240;SDS011;6687;47.790;7.322;2022-08-14T10:08:40;0.80;;;0.80;;
13240;SDS011;6687;47.790;7.322;2022-08-14T10:11:13;1.20;;;1.10;;
13240;SDS011;6687;47.790;7.322;2022-08-14T10:13:43;0.90;;;0.90;;
13240;SDS011;6687;47.790;7.322;2022-08-14T10:16:10;0.90;;;0.90;;
13240;SDS011;6687;47.790;7.322;2022-08-14T10:18:39;1.20;;;1.10;;
13240;SDS011;6687;47.790;7.322;2022-08-14T10:21:08;1.05;;;1.05;;
13240;SDS011;6687;47.790;7.322;2022-08-14T10:23:42;1.92;;;1.27;;
13240;SDS011;6687;47.790;7.322;2022-08-14T10:26:14;1.10;;;1.10;;
13240;SDS011;6687;47.790;7.322;2022-08-14T10:28:43;1.42;;;1.33;;
13240;SDS011;6687;47.790;7.322;2022-08-14T10:31:18;1.55;;;1.42;;
13240;SDS011;6687;47.790;7.322;2022-08-14T10:33:56;1.23;;;1.13;;
13240;SDS011;6687;47.790;7.322;2022-08-14T10:36:27;1.90;;;1.20;;
13240;SDS011;6687;47.790;7.322;2022-08-14T10:38:57;1.20;;;1.10;;
13240;SDS011;6687;47.790;7.322;2022-08-14T10:41:38;1.63;;;1.52;;
13240;SDS011;6687;47.790;7.322;2022-08-14T10:44:07;1.23;;;1.15;;
13240;SDS011;6687;47.790;7.322;2022-08-14T10:46:40;1.63;;;1.52;;
13240;SDS011;6687;47.790;7.322;2022-08-14T10:49:15;2.78;;;2.58;;
13240;SDS011;6687;47.790;7.322;2022-08-14T10:51:54;2.60;;;2.00;;
13240;SDS011;6687;47.790;7.322;2022-08-14T10:54:33;1.52;;;1.40;;
13240;SDS011;6687;47.790;7.322;2022-08-14T10:57:11;1.73;;;1.63;;
13240;SDS011;6687;47.790;7.322;2022-08-14T10:59:40;2.25;;;1.55;;
13240;SDS011;6687;47.790;7.322;2022-08-14T11:02:19;2.42;;;2.22;;
13240;SDS011;6687;47.790;7.322;2022-08-14T11:04:57;2.22;;;2.05;;
13240;SDS011;6687;47.790;7.322;2022-08-14T11:07:30;1.85;;;1.75;;
13240;SDS011;6687;47.790;7.322;2022-08-14T11:09:57;2.00;;;1.90;;
13240;SDS011;6687;47.790;7.322;2022-08-14T11:12:25;1.95;;;1.85;;
13240;SDS011;6687;47.790;7.322;2022-08-14T11:15:05;2.03;;;1.92;;
13240;SDS011;6687;47.790;7.322;2022-08-14T11:17:34;2.17;;;2.00;;
13240;SDS011;6687;47.790;7.322;2022-08-14T11:20:01;1.83;;;1.67;;
13240;SDS011;6687;47.790;7.322;2022-08-14T11:22:32;2.00;;;1.90;;
13240;SDS011;6687;47.790;7.322;2022-08-14T11:25:00;2.70;;;2.42;;
13240;SDS011;6687;47.790;7.322;2022-08-14T11:27:30;2.30;;;2.10;;
13240;SDS011;6687;47.790;7.322;2022-08-14T11:29:59;2.50;;;2.30;;
13240;SDS011;6687;47.790;7.322;2022-08-14T11:32:27;2.38;;;2.17;;
13240;SDS011;6687;47.790;7.322;2022-08-14T11:34:55;2.75;;;2.20;;
13240;SDS011;6687;47.790;7.322;2022-08-14T11:37:22;3.83;;;2.70;;
13240;SDS011;6687;47.790;7.322;2022-08-14T11:39:50;2.67;;;2.40;;
13240;SDS011;6687;47.790;7.322;2022-08-14T11:42:20;2.60;;;2.40;;
13240;SDS011;6687;47.790;7.322;2022-08-14T11:44:49;2.17;;;2.05;;
13240;SDS011;6687;47.790;7.322;2022-08-14T11:47:16;3.30;;;2.25;;
13240;SDS011;6687;47.790;7.322;2022-08-14T11:49:44;2.97;;;2.35;;
13240;SDS011;6687;47.790;7.322;2022-08-14T11:52:12;3.47;;;2.03;;
13240;SDS011;6687;47.790;7.322;2022-08-14T11:54:40;2.85;;;2.00;;
13240;SDS011;6687;47.790;7.322;2022-08-14T11:57:13;2.30;;;2.10;;
13240;SDS011;6687;47.790;7.322;2022-08-14T11:59:41;1.55;;;1.45;;
13240;SDS011;6687;47.790;7.322;2022-08-14T12:02:09;2.10;;;1.55;;
13240;SDS011;6687;47.790;7.322;2022-08-14T12:04:47;1.40;;;1.15;;
13240;SDS011;6687;47.790;7.322;2022-08-14T12:07:15;1.23;;;1.23;;
13240;SDS011;6687;47.790;7.322;2022-08-14T12:09:42;1.83;;;1.70;;
13240;SDS011;6687;47.790;7.322;2022-08-14T12:12:14;1.55;;;1.45;;
13240;SDS011;6687;47.790;7.322;2022-08-14T12:14:47;1.52;;;1.42;;
13240;SDS011;6687;47.790;7.322;2022-08-14T12:17:17;1.40;;;1.10;;
13240;SDS011;6687;47.790;7.322;2022-08-14T12:19:45;4.13;;;1.15;;
13240;SDS011;6687;47.790;7.322;2022-08-14T12:22:13;1.20;;;1.10;;
13240;SDS011;6687;47.790;7.322;2022-08-14T12:24:40;1.40;;;1.05;;
13240;SDS011;6687;47.790;7.322;2022-08-14T12:27:08;0.80;;;0.80;;
13240;SDS011;6687;47.790;7.322;2022-08-14T12:29:38;1.10;;;0.90;;
13240;SDS011;6687;47.790;7.322;2022-08-14T12:32:16;1.80;;;1.23;;
13240;SDS011;6687;47.790;7.322;2022-08-14T12:34:43;2.47;;;1.38;;
13240;SDS011;6687;47.790;7.322;2022-08-14T12:37:17;1.25;;;1.00;;
13240;SDS011;6687;47.790;7.322;2022-08-14T12:39:45;1.75;;;1.02;;
13240;SDS011;6687;47.790;7.322;2022-08-14T12:42:12;3.25;;;1.55;;
13240;SDS011;6687;47.790;7.322;2022-08-14T12:44:41;1.77;;;1.67;;
13240;SDS011;6687;47.790;7.322;2022-08-14T12:47:09;1.23;;;1.05;;
13240;SDS011;6687;47.790;7.322;2022-08-14T12:49:46;1.15;;;1.15;;
13240;SDS011;6687;47.790;7.322;2022-08-14T12:52:25;1.88;;;1.40;;
13240;SDS011;6687;47.790;7.322;2022-08-14T12:54:56;3.08;;;1.27;;
13240;SDS011;6687;47.790;7.322;2022-08-14T12:57:31;2.58;;;1.05;;
13240;SDS011;6687;47.790;7.322;2022-08-14T13:00:05;1.00;;;1.00;;
13240;SDS011;6687;47.790;7.322;2022-08-14T13:02:35;1.40;;;1.30;;
13240;SDS011;6687;47.790;7.322;2022-08-14T13:05:03;2.55;;;1.52;;
13240;SDS011;6687;47.790;7.322;2022-08-14T13:07:30;2.78;;;1.30;;
13240;SDS011;6687;47.790;7.322;2022-08-14T13:09:57;1.13;;;1.10;;
13240;SDS011;6687;47.790;7.322;2022-08-14T13:12:24;1.48;;;1.27;;
13240;SDS011;6687;47.790;7.322;2022-08-14T13:14:54;3.10;;;1.50;;
13240;SDS011;6687;47.790;7.322;2022-08-14T13:17:25;2.03;;;1.50;;
13240;SDS011;6687;47.790;7.322;2022-08-14T13:19:54;3.03;;;1.33;;
13240;SDS011;6687;47.790;7.322;2022-08-14T13:22:22;1.27;;;1.17;;
13240;SDS011;6687;47.790;7.322;2022-08-14T13:24:52;2.03;;;1.50;;
13240;SDS011;6687;47.790;7.322;2022-08-14T13:27:19;1.88;;;1.50;;
13240;SDS011;6687;47.790;7.322;2022-08-14T13:29:48;1.23;;;1.10;;
13240;SDS011;6687;47.790;7.322;2022-08-14T13:32:17;1.40;;;1.30;;
13240;SDS011;6687;47.790;7.322;2022-08-14T13:34:47;1.10;;;1.10;;
13240;SDS011;6687;47.790;7.322;2022-08-14T13:37:14;1.75;;;1.65;;
13240;SDS011;6687;47.790;7.322;2022-08-14T13:39:45;1.05;;;0.95;;
13240;SDS011;6687;47.790;7.322;2022-08-14T13:42:13;1.17;;;1.08;;
13240;SDS011;6687;47.790;7.322;2022-08-14T13:44:45;2.17;;;1.70;;
13240;SDS011;6687;47.790;7.322;2022-08-14T13:47:14;1.35;;;1.25;;
13240;SDS011;6687;47.790;7.322;2022-08-14T13:49:43;1.05;;;0.95;;
13240;SDS011;6687;47.790;7.322;2022-08-14T13:52:13;1.80;;;1.35;;
13240;SDS011;6687;47.790;7.322;2022-08-14T13:54:44;1.52;;;1.42;;
13240;SDS011;6687;47.790;7.322;2022-08-14T13:57:12;1.50;;;1.40;;
13240;SDS011;6687;47.790;7.322;2022-08-14T13:59:43;1.60;;;1.10;;
13240;SDS011;6687;47.790;7.322;2022-08-14T14:02:11;1.30;;;1.23;;
13240;SDS011;6687;47.790;7.322;2022-08-14T14:04:39;1.40;;;1.30;;
13240;SDS011;6687;47.790;7.322;2022-08-14T14:07:08;2.53;;;1.27;;
13240;SDS011;6687;47.790;7.322;2022-08-14T14:09:41;1.50;;;1.40;;
13240;SDS011;6687;47.790;7.322;2022-08-14T14:12:09;1.67;;;1.58;;
13240;SDS011;6687;47.790;7.322;2022-08-14T14:14:37;1.73;;;1.50;;
13240;SDS011;6687;47.790;7.322;2022-08-14T14:17:05;1.27;;;1.17;;
13240;SDS011;6687;47.790;7.322;2022-08-14T14:19:33;1.85;;;1.58;;
13240;SDS011;6687;47.790;7.322;2022-08-14T14:22:00;1.33;;;1.23;;
13240;SDS011;6687;47.790;7.322;2022-08-14T14:24:30;1.42;;;1.33;;
13240;SDS011;6687;47.790;7.322;2022-08-14T14:27:00;2.58;;;1.45;;
13240;SDS011;6687;47.790;7.322;2022-08-14T14:29:28;1.77;;;1.60;;
13240;SDS011;6687;47.790;7.322;2022-08-14T14:31:57;4.10;;;1.52;;
13240;SDS011;6687;47.790;7.322;2022-08-14T14:34:25;1.20;;;1.20;;
13240;SDS011;6687;47.790;7.322;2022-08-14T14:36:53;2.22;;;1.73;;
13240;SDS011;6687;47.790;7.322;2022-08-14T14:39:22;1.30;;;1.20;;
13240;SDS011;6687;47.790;7.322;2022-08-14T14:41:51;1.92;;;1.70;;
13240;SDS011;6687;47.790;7.322;2022-08-14T14:44:23;1.80;;;1.70;;
13240;SDS011;6687;47.790;7.322;2022-08-14T14:46:51;2.25;;;1.10;;
13240;SDS011;6687;47.790;7.322;2022-08-14T14:49:21;0.93;;;0.93;;
13240;SDS011;6687;47.790;7.322;2022-08-14T14:51:48;1.77;;;1.40;;
13240;SDS011;6687;47.790;7.322;2022-08-14T14:54:15;1.33;;;1.23;;
13240;SDS011;6687;47.790;7.322;2022-08-14T14:56:43;1.35;;;1.25;;
13240;SDS011;6687;47.790;7.322;2022-08-14T14:59:11;2.45;;;1.30;;
13240;SDS011;6687;47.790;7.322;2022-08-14T15:01:40;1.67;;;1.58;;
13240;SDS011;6687;47.790;7.322;2022-08-14T15:04:12;1.00;;;1.00;;
13240;SDS011;6687;47.790;7.322;2022-08-14T15:06:41;1.70;;;1.45;;
13240;SDS011;6687;47.790;7.322;2022-08-14T15:09:07;1.45;;;1.35;;
13240;SDS011;6687;47.790;7.322;2022-08-14T15:11:34;1.50;;;1.40;;
13240;SDS011;6687;47.790;7.322;2022-08-14T15:14:01;1.70;;;1.60;;
13240;SDS011;6687;47.790;7.322;2022-08-14T15:16:28;1.63;;;1.52;;
13240;SDS011;6687;47.790;7.322;2022-08-14T15:18:57;1.77;;;1.67;;
13240;SDS011;6687;47.790;7.322;2022-08-14T15:21:23;1.80;;;1.70;;
13240;SDS011;6687;47.790;7.322;2022-08-14T15:23:50;1.60;;;1.50;;
13240;SDS011;6687;47.790;7.322;2022-08-14T15:26:17;1.50;;;1.40;;
13240;SDS011;6687;47.790;7.322;2022-08-14T15:28:45;2.25;;;1.27;;
13240;SDS011;6687;47.790;7.322;2022-08-14T15:31:12;1.10;;;1.10;;
13240;SDS011;6687;47.790;7.322;2022-08-14T15:33:39;1.58;;;1.30;;
13240;SDS011;6687;47.790;7.322;2022-08-14T15:36:24;1.88;;;1.25;;
13240;SDS011;6687;47.790;7.322;2022-08-14T15:38:52;1.23;;;1.13;;
13240;SDS011;6687;47.790;7.322;2022-08-14T15:41:19;1.70;;;1.60;;
13240;SDS011;6687;47.790;7.322;2022-08-14T15:43:46;1.85;;;1.60;;
13240;SDS011;6687;47.790;7.322;2022-08-14T15:46:14;1.73;;;1.40;;
13240;SDS011;6687;47.790;7.322;2022-08-14T15:48:42;1.70;;;1.60;;
13240;SDS011;6687;47.790;7.322;2022-08-14T15:51:09;1.58;;;1.40;;
13240;SDS011;6687;47.790;7.322;2022-08-14T15:53:37;1.40;;;1.30;;
13240;SDS011;6687;47.790;7.322;2022-08-14T15:56:05;2.45;;;1.80;;
13240;SDS011;6687;47.790;7.322;2022-08-14T15:58:32;3.22;;;1.88;;
13240;SDS011;6687;47.790;7.322;2022-08-14T16:00:59;5.18;;;1.50;;
13240;SDS011;6687;47.790;7.322;2022-08-14T16:03:43;1.27;;;1.25;;
13240;SDS011;6687;47.790;7.322;2022-08-14T16:06:11;1.30;;;1.20;;
13240;SDS011;6687;47.790;7.322;2022-08-14T16:08:40;1.90;;;1.42;;
13240;SDS011;6687;47.790;7.322;2022-08-14T16:11:08;2.47;;;1.27;;
13240;SDS011;6687;47.790;7.322;2022-08-14T16:13:36;1.73;;;0.80;;
13240;SDS011;6687;47.790;7.322;2022-08-14T16:16:06;1.60;;;1.30;;
13240;SDS011;6687;47.790;7.322;2022-08-14T16:18:35;1.40;;;1.30;;
13240;SDS011;6687;47.790;7.322;2022-08-14T16:21:05;1.20;;;1.10;;
13240;SDS011;6687;47.790;7.322;2022-08-14T16:23:33;1.00;;;1.00;;
13240;SDS011;6687;47.790;7.322;2022-08-14T16:26:02;1.08;;;1.08;;
13240;SDS011;6687;47.790;7.322;2022-08-14T16:28:30;1.45;;;1.35;;
13240;SDS011;6687;47.790;7.322;2022-08-14T16:30:57;2.83;;;1.38;;
13240;SDS011;6687;47.790;7.322;2022-08-14T16:33:25;1.00;;;0.88;;
13240;SDS011;6687;47.790;7.322;2022-08-14T16:35:52;1.52;;;1.40;;
13240;SDS011;6687;47.790;7.322;2022-08-14T16:38:20;1.50;;;1.40;;
13240;SDS011;6687;47.790;7.322;2022-08-14T16:40:51;1.48;;;1.17;;
13240;SDS011;6687;47.790;7.322;2022-08-14T16:43:42;1.67;;;1.45;;
13240;SDS011;6687;47.790;7.322;2022-08-14T16:46:10;2.40;;;1.13;;
13240;SDS011;6687;47.790;7.322;2022-08-14T16:48:39;1.35;;;1.25;;
13240;SDS011;6687;47.790;7.322;2022-08-14T16:51:06;1.10;;;1.00;;
13240;SDS011;6687;47.790;7.322;2022-08-14T16:53:34;1.92;;;1.25;;
13240;SDS011;6687;47.790;7.322;2022-08-14T16:56:08;1.38;;;1.10;;
13240;SDS011;6687;47.790;7.322;2022-08-14T16:58:36;1.40;;;1.20;;
13240;SDS011;6687;47.790;7.322;2022-08-14T17:01:14;2.67;;;1.63;;
13240;SDS011;6687;47.790;7.322;2022-08-14T17:03:58;8.52;;;1.05;;
13240;SDS011;6687;47.790;7.322;2022-08-14T17:06:38;1.92;;;1.20;;
13240;SDS011;6687;47.790;7.322;2022-08-14T17:09:12;1.05;;;0.82;;
13240;SDS011;6687;47.790;7.322;2022-08-14T17:11:52;1.67;;;0.80;;
13240;SDS011;6687;47.790;7.322;2022-08-14T17:14:22;1.40;;;1.30;;
13240;SDS011;6687;47.790;7.322;2022-08-14T17:16:54;2.65;;;1.00;;
13240;SDS011;6687;47.790;7.322;2022-08-14T17:19:23;0.55;;;0.55;;
13240;SDS011;6687;47.790;7.322;2022-08-14T17:21:50;1.13;;;0.80;;
13240;SDS011;6687;47.790;7.322;2022-08-14T17:24:17;0.77;;;0.77;;
13240;SDS011;6687;47.790;7.322;2022-08-14T17:26:47;1.05;;;0.80;;
13240;SDS011;6687;47.790;7.322;2022-08-14T17:29:17;0.85;;;0.85;;
13240;SDS011;6687;47.790;7.322;2022-08-14T17:31:46;1.20;;;1.10;;
13240;SDS011;6687;47.790;7.322;2022-08-14T17:34:15;0.70;;;0.70;;
13240;SDS011;6687;47.790;7.322;2022-08-14T17:36:45;0.80;;;0.80;;
13240;SDS011;6687;47.790;7.322;2022-08-14T17:39:16;0.70;;;0.70;;
13240;SDS011;6687;47.790;7.322;2022-08-14T17:41:45;1.88;;;1.02;;
13240;SDS011;6687;47.790;7.322;2022-08-14T17:44:17;0.65;;;0.65;;
13240;SDS011;6687;47.790;7.322;2022-08-14T17:46:47;1.02;;;1.00;;
13240;SDS011;6687;47.790;7.322;2022-08-14T17:49:19;0.88;;;0.85;;
13240;SDS011;6687;47.790;7.322;2022-08-14T17:52:01;1.33;;;0.80;;
13240;SDS011;6687;47.790;7.322;2022-08-14T17:54:31;1.90;;;0.75;;
13240;SDS011;6687;47.790;7.322;2022-08-14T17:57:00;0.85;;;0.82;;
13240;SDS011;6687;47.790;7.322;2022-08-14T17:59:30;1.58;;;0.80;;
13240;SDS011;6687;47.790;7.322;2022-08-14T18:01:58;1.05;;;0.95;;
13240;SDS011;6687;47.790;7.322;2022-08-14T18:04:28;2.45;;;1.00;;
13240;SDS011;6687;47.790;7.322;2022-08-14T18:06:56;1.00;;;0.93;;
13240;SDS011;6687;47.790;7.322;2022-08-14T18:09:25;1.15;;;1.05;;
13240;SDS011;6687;47.790;7.322;2022-08-14T18:11:53;1.27;;;0.98;;
13240;SDS011;6687;47.790;7.322;2022-08-14T18:14:22;0.80;;;0.80;;
13240;SDS011;6687;47.790;7.322;2022-08-14T18:16:50;1.40;;;0.90;;
13240;SDS011;6687;47.790;7.322;2022-08-14T18:19:19;0.95;;;0.95;;
13240;SDS011;6687;47.790;7.322;2022-08-14T18:21:50;1.75;;;0.88;;
13240;SDS011;6687;47.790;7.322;2022-08-14T18:24:18;0.85;;;0.85;;
13240;SDS011;6687;47.790;7.322;2022-08-14T18:26:45;1.33;;;1.00;;
13240;SDS011;6687;47.790;7.322;2022-08-14T18:29:14;0.95;;;0.95;;
13240;SDS011;6687;47.790;7.322;2022-08-14T18:31:42;0.77;;;0.77;;
13240;SDS011;6687;47.790;7.322;2022-08-14T18:34:09;0.85;;;0.85;;
13240;SDS011;6687;47.790;7.322;2022-08-14T18:36:39;1.27;;;1.00;;
13240;SDS011;6687;47.790;7.322;2022-08-14T18:39:29;1.00;;;0.85;;
13240;SDS011;6687;47.790;7.322;2022-08-14T18:45:07;1.27;;;1.02;;
13240;SDS011;6687;47.790;7.322;2022-08-14T18:47:35;1.25;;;0.90;;
13240;SDS011;6687;47.790;7.322;2022-08-14T18:50:06;1.00;;;0.98;;
13240;SDS011;6687;47.790;7.322;2022-08-14T18:52:39;0.80;;;0.70;;
13240;SDS011;6687;47.790;7.322;2022-08-14T18:58:16;0.93;;;0.90;;
13240;SDS011;6687;47.790;7.322;2022-08-14T19:00:44;0.90;;;0.70;;
13240;SDS011;6687;47.790;7.322;2022-08-14T19:15:23;0.60;;;0.60;;
13240;SDS011;6687;47.790;7.322;2022-08-14T19:17:52;1.77;;;1.00;;
13240;SDS011;6687;47.790;7.322;2022-08-14T19:20:19;1.08;;;1.08;;
13240;SDS011;6687;47.790;7.322;2022-08-14T19:22:48;1.23;;;1.05;;
13240;SDS011;6687;47.790;7.322;2022-08-14T19:28:23;1.20;;;1.10;;
13240;SDS011;6687;47.790;7.322;2022-08-14T19:33:54;1.17;;;1.08;;
13240;SDS011;6687;47.790;7.322;2022-08-14T19:36:23;1.55;;;1.20;;
13240;SDS011;6687;47.790;7.322;2022-08-14T19:38:55;0.80;;;0.80;;
13240;SDS011;6687;47.790;7.322;2022-08-14T19:41:24;1.05;;;0.90;;
13240;SDS011;6687;47.790;7.322;2022-08-14T19:43:53;0.75;;;0.65;;
13240;SDS011;6687;47.790;7.322;2022-08-14T19:46:29;0.93;;;0.93;;
13240;SDS011;6687;47.790;7.322;2022-08-14T19:48:58;1.80;;;0.75;;
13240;SDS011;6687;47.790;7.322;2022-08-14T19:51:26;1.05;;;0.95;;
13240;SDS011;6687;47.790;7.322;2022-08-14T19:53:54;0.77;;;0.77;;
13240;SDS011;6687;47.790;7.322;2022-08-14T19:56:22;1.00;;;0.80;;
13240;SDS011;6687;47.790;7.322;2022-08-14T19:58:50;1.08;;;0.90;;
13240;SDS011;6687;47.790;7.322;2022-08-14T20:01:25;1.50;;;0.68;;
13240;SDS011;6687;47.790;7.322;2022-08-14T20:03:53;2.88;;;0.57;;
13240;SDS011;6687;47.790;7.322;2022-08-14T20:06:21;0.75;;;0.73;;
13240;SDS011;6687;47.790;7.322;2022-08-14T20:08:58;1.17;;;1.00;;
13240;SDS011;6687;47.790;7.322;2022-08-14T20:11:26;1.73;;;0.70;;
13240;SDS011;6687;47.790;7.322;2022-08-14T20:13:55;1.55;;;1.00;;
13240;SDS011;6687;47.790;7.322;2022-08-14T20:16:27;1.95;;;0.90;;
13240;SDS011;6687;47.790;7.322;2022-08-14T20:18:55;1.10;;;1.00;;
13240;SDS011;6687;47.790;7.322;2022-08-14T20:21:24;0.85;;;0.60;;
13240;SDS011;6687;47.790;7.322;2022-08-14T20:26:44;1.98;;;0.80;;
13240;SDS011;6687;47.790;7.322;2022-08-14T20:29:29;2.33;;;0.90;;
13240;SDS011;6687;47.790;7.322;2022-08-14T20:31:58;0.95;;;0.70;;
13240;SDS011;6687;47.790;7.322;2022-08-14T20:34:34;0.77;;;0.77;;
13240;SDS011;6687;47.790;7.322;2022-08-14T20:37:05;0.50;;;0.50;;
13240;SDS011;6687;47.790;7.322;2022-08-14T20:39:39;0.85;;;0.65;;
13240;SDS011;6687;47.790;7.322;2022-08-14T20:42:08;0.80;;;0.70;;
13240;SDS011;6687;47.790;7.322;2022-08-14T20:45:00;3.08;;;1.05;;
13240;SDS011;6687;47.790;7.322;2022-08-14T20:47:43;0.95;;;0.77;;
13240;SDS011;6687;47.790;7.322;2022-08-14T20:50:12;1.10;;;0.98;;
13240;SDS011;6687;47.790;7.322;2022-08-14T20:52:44;1.38;;;1.10;;
13240;SDS011;6687;47.790;7.322;2022-08-14T20:55:22;1.73;;;0.73;;
13240;SDS011;6687;47.790;7.322;2022-08-14T20:57:51;1.70;;;0.90;;
13240;SDS011;6687;47.790;7.322;2022-08-14T21:00:36;0.60;;;0.60;;
13240;SDS011;6687;47.790;7.322;2022-08-14T21:05:51;2.05;;;0.75;;
13240;SDS011;6687;47.790;7.322;2022-08-14T21:08:18;0.80;;;0.70;;
13240;SDS011;6687;47.790;7.322;2022-08-14T21:10:45;0.80;;;0.63;;
13240;SDS011;6687;47.790;7.322;2022-08-14T21:13:13;2.20;;;0.82;;
13240;SDS011;6687;47.790;7.322;2022-08-14T21:15:41;1.63;;;0.85;;
13240;SDS011;6687;47.790;7.322;2022-08-14T21:18:08;0.77;;;0.77;;
13240;SDS011;6687;47.790;7.322;2022-08-14T21:20:37;1.00;;;0.90;;
13240;SDS011;6687;47.790;7.322;2022-08-14T21:23:04;1.13;;;0.90;;
13240;SDS011;6687;47.790;7.322;2022-08-14T21:25:32;1.10;;;1.00;;
13240;SDS011;6687;47.790;7.322;2022-08-14T21:28:00;2.53;;;0.82;;
13240;SDS011;6687;47.790;7.322;2022-08-14T21:30:29;0.70;;;0.70;;
13240;SDS011;6687;47.790;7.322;2022-08-14T21:32:56;1.00;;;0.90;;
13240;SDS011;6687;47.790;7.322;2022-08-14T21:35:23;0.75;;;0.75;;
13240;SDS011;6687;47.790;7.322;2022-08-14T21:37:54;3.00;;;0.77;;
13240;SDS011;6687;47.790;7.322;2022-08-14T21:40:22;1.02;;;0.93;;
13240;SDS011;6687;47.790;7.322;2022-08-14T21:42:51;1.48;;;1.10;;
13240;SDS011;6687;47.790;7.322;2022-08-14T21:45:18;0.90;;;0.90;;
13240;SDS011;6687;47.790;7.322;2022-08-14T21:47:45;2.33;;;1.13;;
13240;SDS011;6687;47.790;7.322;2022-08-14T21:50:12;0.73;;;0.60;;
13240;SDS011;6687;47.790;7.322;2022-08-14T21:52:40;0.60;;;0.60;;
13240;SDS011;6687;47.790;7.322;2022-08-14T21:55:11;1.55;;;0.93;;
13240;SDS011;6687;47.790;7.322;2022-08-14T21:57:45;0.43;;;0.43;;
13240;SDS011;6687;47.790;7.322;2022-08-14T22:00:12;0.90;;;0.90;;